sensor_id;sensor_type;location;lat;lon;timestamp;P1;durP1;ratioP1;P2;durP2;ratioP2
12776;SDS011;6452;41.572;23.732;2023-04-24T00:00:10;2.80;;;2.70;;
12776;SDS011;6452;41.572;23.732;2023-04-24T00:02:40;3.13;;;2.92;;
12776;SDS011;6452;41.572;23.732;2023-04-24T00:05:06;3.13;;;2.92;;
12776;SDS011;6452;41.572;23.732;2023-04-24T00:07:33;2.88;;;2.67;;
12776;SDS011;6452;41.572;23.732;2023-04-24T00:09:59;3.35;;;3.08;;
12776;SDS011;6452;41.572;23.732;2023-04-24T00:12:25;2.63;;;2.53;;
12776;SDS011;6452;41.572;23.732;2023-04-24T00:14:51;3.17;;;2.97;;
12776;SDS011;6452;41.572;23.732;2023-04-24T00:17:16;2.55;;;2.45;;
12776;SDS011;6452;41.572;23.732;2023-04-24T00:19:45;3.33;;;3.13;;
12776;SDS011;6452;41.572;23.732;2023-04-24T00:22:11;3.10;;;2.90;;
12776;SDS011;6452;41.572;23.732;2023-04-24T00:24:39;3.17;;;2.80;;
12776;SDS011;6452;41.572;23.732;2023-04-24T00:27:04;3.25;;;2.95;;
12776;SDS011;6452;41.572;23.732;2023-04-24T00:29:30;2.65;;;2.55;;
12776;SDS011;6452;41.572;23.732;2023-04-24T00:31:56;4.53;;;2.85;;
12776;SDS011;6452;41.572;23.732;2023-04-24T00:34:22;2.25;;;2.15;;
12776;SDS011;6452;41.572;23.732;2023-04-24T00:36:48;2.88;;;2.72;;
12776;SDS011;6452;41.572;23.732;2023-04-24T00:39:18;3.25;;;2.97;;
12776;SDS011;6452;41.572;23.732;2023-04-24T00:41:44;3.08;;;2.85;;
12776;SDS011;6452;41.572;23.732;2023-04-24T00:44:10;3.40;;;3.15;;
12776;SDS011;6452;41.572;23.732;2023-04-24T00:46:36;3.90;;;3.60;;
12776;SDS011;6452;41.572;23.732;2023-04-24T00:49:03;3.33;;;3.13;;
12776;SDS011;6452;41.572;23.732;2023-04-24T00:51:30;3.67;;;3.38;;
12776;SDS011;6452;41.572;23.732;2023-04-24T00:53:58;3.97;;;3.67;;
12776;SDS011;6452;41.572;23.732;2023-04-24T00:56:24;3.63;;;3.35;;
12776;SDS011;6452;41.572;23.732;2023-04-24T00:58:50;3.92;;;3.63;;
12776;SDS011;6452;41.572;23.732;2023-04-24T01:01:16;3.55;;;3.30;;
12776;SDS011;6452;41.572;23.732;2023-04-24T01:03:43;4.25;;;3.85;;
12776;SDS011;6452;41.572;23.732;2023-04-24T01:06:09;3.90;;;3.60;;
12776;SDS011;6452;41.572;23.732;2023-04-24T01:08:36;4.35;;;3.95;;
12776;SDS011;6452;41.572;23.732;2023-04-24T01:11:03;3.60;;;3.40;;
12776;SDS011;6452;41.572;23.732;2023-04-24T01:13:30;3.78;;;3.47;;
12776;SDS011;6452;41.572;23.732;2023-04-24T01:15:56;3.92;;;3.60;;
12776;SDS011;6452;41.572;23.732;2023-04-24T01:18:23;6.75;;;4.85;;
12776;SDS011;6452;41.572;23.732;2023-04-24T01:20:49;4.35;;;3.95;;
12776;SDS011;6452;41.572;23.732;2023-04-24T01:23:16;4.05;;;3.75;;
12776;SDS011;6452;41.572;23.732;2023-04-24T01:25:42;4.05;;;3.75;;
12776;SDS011;6452;41.572;23.732;2023-04-24T01:28:08;3.83;;;3.45;;
12776;SDS011;6452;41.572;23.732;2023-04-24T01:30:35;3.60;;;3.40;;
12776;SDS011;6452;41.572;23.732;2023-04-24T01:33:01;3.85;;;3.58;;
12776;SDS011;6452;41.572;23.732;2023-04-24T01:35:28;3.97;;;3.58;;
12776;SDS011;6452;41.572;23.732;2023-04-24T01:37:53;4.32;;;3.85;;
12776;SDS011;6452;41.572;23.732;2023-04-24T01:40:19;3.95;;;3.65;;
12776;SDS011;6452;41.572;23.732;2023-04-24T01:42:45;16.52;;;9.55;;
12776;SDS011;6452;41.572;23.732;2023-04-24T01:45:12;5.72;;;5.07;;
12776;SDS011;6452;41.572;23.732;2023-04-24T01:47:38;4.82;;;4.20;;
12776;SDS011;6452;41.572;23.732;2023-04-24T01:50:04;6.00;;;4.40;;
12776;SDS011;6452;41.572;23.732;2023-04-24T01:52:30;5.53;;;4.63;;
12776;SDS011;6452;41.572;23.732;2023-04-24T01:55:04;4.55;;;4.15;;
12776;SDS011;6452;41.572;23.732;2023-04-24T01:57:31;5.13;;;4.65;;
12776;SDS011;6452;41.572;23.732;2023-04-24T01:59:57;4.82;;;4.43;;
12776;SDS011;6452;41.572;23.732;2023-04-24T02:02:23;4.78;;;4.25;;
12776;SDS011;6452;41.572;23.732;2023-04-24T02:04:55;4.82;;;4.43;;
12776;SDS011;6452;41.572;23.732;2023-04-24T02:07:21;4.55;;;4.13;;
12776;SDS011;6452;41.572;23.732;2023-04-24T02:09:47;4.82;;;4.05;;
12776;SDS011;6452;41.572;23.732;2023-04-24T02:12:14;3.28;;;2.97;;
12776;SDS011;6452;41.572;23.732;2023-04-24T02:14:40;4.15;;;3.85;;
12776;SDS011;6452;41.572;23.732;2023-04-24T02:17:06;5.22;;;4.22;;
12776;SDS011;6452;41.572;23.732;2023-04-24T02:19:32;4.63;;;4.22;;
12776;SDS011;6452;41.572;23.732;2023-04-24T02:21:58;4.65;;;4.18;;
12776;SDS011;6452;41.572;23.732;2023-04-24T02:24:24;3.90;;;3.50;;
12776;SDS011;6452;41.572;23.732;2023-04-24T02:26:50;3.80;;;3.50;;
12776;SDS011;6452;41.572;23.732;2023-04-24T02:29:16;4.22;;;3.83;;
12776;SDS011;6452;41.572;23.732;2023-04-24T02:31:43;4.38;;;4.03;;
12776;SDS011;6452;41.572;23.732;2023-04-24T02:34:09;4.80;;;4.35;;
12776;SDS011;6452;41.572;23.732;2023-04-24T02:36:35;5.07;;;4.60;;
12776;SDS011;6452;41.572;23.732;2023-04-24T02:39:02;4.82;;;4.40;;
12776;SDS011;6452;41.572;23.732;2023-04-24T02:41:29;5.03;;;4.30;;
12776;SDS011;6452;41.572;23.732;2023-04-24T02:43:57;4.55;;;4.15;;
12776;SDS011;6452;41.572;23.732;2023-04-24T02:46:24;4.60;;;4.20;;
12776;SDS011;6452;41.572;23.732;2023-04-24T02:48:50;5.07;;;4.57;;
12776;SDS011;6452;41.572;23.732;2023-04-24T02:51:16;4.95;;;4.25;;
12776;SDS011;6452;41.572;23.732;2023-04-24T02:53:42;5.45;;;4.47;;
12776;SDS011;6452;41.572;23.732;2023-04-24T02:56:08;3.45;;;3.22;;
12776;SDS011;6452;41.572;23.732;2023-04-24T02:58:37;4.50;;;3.50;;
12776;SDS011;6452;41.572;23.732;2023-04-24T03:01:03;4.65;;;4.20;;
12776;SDS011;6452;41.572;23.732;2023-04-24T03:03:29;4.53;;;3.75;;
12776;SDS011;6452;41.572;23.732;2023-04-24T03:05:55;3.90;;;3.60;;
12776;SDS011;6452;41.572;23.732;2023-04-24T03:08:22;4.22;;;3.92;;
12776;SDS011;6452;41.572;23.732;2023-04-24T03:10:48;4.25;;;3.47;;
12776;SDS011;6452;41.572;23.732;2023-04-24T03:13:15;3.88;;;3.50;;
12776;SDS011;6452;41.572;23.732;2023-04-24T03:15:41;4.32;;;3.92;;
12776;SDS011;6452;41.572;23.732;2023-04-24T03:18:07;3.78;;;3.47;;
12776;SDS011;6452;41.572;23.732;2023-04-24T03:20:33;3.33;;;3.13;;
12776;SDS011;6452;41.572;23.732;2023-04-24T03:22:59;3.63;;;3.33;;
12776;SDS011;6452;41.572;23.732;2023-04-24T03:25:26;3.70;;;3.15;;
12776;SDS011;6452;41.572;23.732;2023-04-24T03:27:52;4.07;;;3.72;;
12776;SDS011;6452;41.572;23.732;2023-04-24T03:30:20;4.15;;;3.63;;
12776;SDS011;6452;41.572;23.732;2023-04-24T03:32:45;4.35;;;3.97;;
12776;SDS011;6452;41.572;23.732;2023-04-24T03:35:11;4.30;;;3.95;;
12776;SDS011;6452;41.572;23.732;2023-04-24T03:37:37;6.45;;;5.85;;
12776;SDS011;6452;41.572;23.732;2023-04-24T03:40:03;12.63;;;11.32;;
12776;SDS011;6452;41.572;23.732;2023-04-24T03:42:31;6.78;;;6.18;;
12776;SDS011;6452;41.572;23.732;2023-04-24T03:44:57;13.48;;;8.35;;
12776;SDS011;6452;41.572;23.732;2023-04-24T03:47:23;8.77;;;7.43;;
12776;SDS011;6452;41.572;23.732;2023-04-24T03:49:49;6.95;;;5.90;;
12776;SDS011;6452;41.572;23.732;2023-04-24T03:52:16;5.35;;;4.80;;
12776;SDS011;6452;41.572;23.732;2023-04-24T03:54:42;8.80;;;5.28;;
12776;SDS011;6452;41.572;23.732;2023-04-24T03:57:08;7.40;;;5.40;;
12776;SDS011;6452;41.572;23.732;2023-04-24T03:59:35;5.45;;;4.93;;
12776;SDS011;6452;41.572;23.732;2023-04-24T04:02:01;9.55;;;5.10;;
12776;SDS011;6452;41.572;23.732;2023-04-24T04:04:27;5.50;;;4.95;;
12776;SDS011;6452;41.572;23.732;2023-04-24T04:06:53;5.65;;;4.93;;
12776;SDS011;6452;41.572;23.732;2023-04-24T04:09:19;7.40;;;5.38;;
12776;SDS011;6452;41.572;23.732;2023-04-24T04:11:45;8.07;;;6.13;;
12776;SDS011;6452;41.572;23.732;2023-04-24T04:14:11;7.70;;;5.90;;
12776;SDS011;6452;41.572;23.732;2023-04-24T04:16:37;8.32;;;6.25;;
12776;SDS011;6452;41.572;23.732;2023-04-24T04:19:04;7.80;;;6.38;;
12776;SDS011;6452;41.572;23.732;2023-04-24T04:21:30;5.38;;;4.88;;
12776;SDS011;6452;41.572;23.732;2023-04-24T04:23:57;7.20;;;5.18;;
12776;SDS011;6452;41.572;23.732;2023-04-24T04:26:24;6.53;;;5.80;;
12776;SDS011;6452;41.572;23.732;2023-04-24T04:28:51;7.60;;;6.35;;
12776;SDS011;6452;41.572;23.732;2023-04-24T04:31:18;6.10;;;5.50;;
12776;SDS011;6452;41.572;23.732;2023-04-24T04:33:45;8.13;;;6.97;;
12776;SDS011;6452;41.572;23.732;2023-04-24T04:36:10;6.35;;;5.07;;
12776;SDS011;6452;41.572;23.732;2023-04-24T04:38:37;5.13;;;4.43;;
12776;SDS011;6452;41.572;23.732;2023-04-24T04:41:03;5.10;;;4.60;;
12776;SDS011;6452;41.572;23.732;2023-04-24T04:43:31;11.85;;;9.20;;
12776;SDS011;6452;41.572;23.732;2023-04-24T04:46:02;7.07;;;6.10;;
12776;SDS011;6452;41.572;23.732;2023-04-24T04:48:28;4.72;;;4.38;;
12776;SDS011;6452;41.572;23.732;2023-04-24T04:50:57;6.65;;;4.85;;
12776;SDS011;6452;41.572;23.732;2023-04-24T04:53:22;4.15;;;3.85;;
12776;SDS011;6452;41.572;23.732;2023-04-24T04:55:48;5.05;;;4.55;;
12776;SDS011;6452;41.572;23.732;2023-04-24T04:58:14;6.97;;;6.05;;
12776;SDS011;6452;41.572;23.732;2023-04-24T05:00:40;6.07;;;5.57;;
12776;SDS011;6452;41.572;23.732;2023-04-24T05:03:06;6.53;;;5.45;;
12776;SDS011;6452;41.572;23.732;2023-04-24T05:05:33;8.48;;;6.32;;
12776;SDS011;6452;41.572;23.732;2023-04-24T05:07:59;7.97;;;6.40;;
12776;SDS011;6452;41.572;23.732;2023-04-24T05:10:25;6.85;;;6.15;;
12776;SDS011;6452;41.572;23.732;2023-04-24T05:12:51;7.07;;;6.38;;
12776;SDS011;6452;41.572;23.732;2023-04-24T05:15:17;6.47;;;5.55;;
12776;SDS011;6452;41.572;23.732;2023-04-24T05:17:44;4.88;;;4.47;;
12776;SDS011;6452;41.572;23.732;2023-04-24T05:20:10;5.57;;;5.07;;
12776;SDS011;6452;41.572;23.732;2023-04-24T05:22:35;5.72;;;5.00;;
12776;SDS011;6452;41.572;23.732;2023-04-24T05:25:02;4.93;;;4.43;;
12776;SDS011;6452;41.572;23.732;2023-04-24T05:27:28;4.40;;;4.00;;
12776;SDS011;6452;41.572;23.732;2023-04-24T05:29:54;3.88;;;3.58;;
12776;SDS011;6452;41.572;23.732;2023-04-24T05:32:21;3.72;;;3.53;;
12776;SDS011;6452;41.572;23.732;2023-04-24T05:34:47;3.83;;;3.53;;
12776;SDS011;6452;41.572;23.732;2023-04-24T05:37:13;3.78;;;3.50;;
12776;SDS011;6452;41.572;23.732;2023-04-24T05:39:39;3.03;;;2.83;;
12776;SDS011;6452;41.572;23.732;2023-04-24T05:42:06;3.63;;;3.40;;
12776;SDS011;6452;41.572;23.732;2023-04-24T05:44:32;3.38;;;3.15;;
12776;SDS011;6452;41.572;23.732;2023-04-24T05:46:58;3.83;;;3.47;;
12776;SDS011;6452;41.572;23.732;2023-04-24T05:49:26;4.00;;;3.70;;
12776;SDS011;6452;41.572;23.732;2023-04-24T05:51:51;4.07;;;3.58;;
12776;SDS011;6452;41.572;23.732;2023-04-24T05:54:17;4.25;;;3.92;;
12776;SDS011;6452;41.572;23.732;2023-04-24T05:56:43;6.30;;;3.88;;
12776;SDS011;6452;41.572;23.732;2023-04-24T05:59:09;4.00;;;3.70;;
12776;SDS011;6452;41.572;23.732;2023-04-24T06:01:35;3.72;;;3.42;;
12776;SDS011;6452;41.572;23.732;2023-04-24T06:04:02;4.03;;;3.72;;
12776;SDS011;6452;41.572;23.732;2023-04-24T06:06:28;4.20;;;3.90;;
12776;SDS011;6452;41.572;23.732;2023-04-24T06:08:54;4.57;;;4.18;;
12776;SDS011;6452;41.572;23.732;2023-04-24T06:11:21;3.95;;;3.65;;
12776;SDS011;6452;41.572;23.732;2023-04-24T06:13:48;4.07;;;3.78;;
12776;SDS011;6452;41.572;23.732;2023-04-24T06:16:14;4.22;;;3.92;;
12776;SDS011;6452;41.572;23.732;2023-04-24T06:18:40;4.20;;;3.90;;
12776;SDS011;6452;41.572;23.732;2023-04-24T06:21:06;4.32;;;3.90;;
12776;SDS011;6452;41.572;23.732;2023-04-24T06:23:32;4.50;;;4.20;;
12776;SDS011;6452;41.572;23.732;2023-04-24T06:25:59;4.18;;;3.78;;
12776;SDS011;6452;41.572;23.732;2023-04-24T06:28:25;3.58;;;3.38;;
12776;SDS011;6452;41.572;23.732;2023-04-24T06:30:51;4.20;;;3.90;;
12776;SDS011;6452;41.572;23.732;2023-04-24T06:33:17;4.32;;;3.92;;
12776;SDS011;6452;41.572;23.732;2023-04-24T06:35:44;4.45;;;3.83;;
12776;SDS011;6452;41.572;23.732;2023-04-24T06:38:10;3.67;;;3.42;;
12776;SDS011;6452;41.572;23.732;2023-04-24T06:40:36;3.50;;;3.20;;
12776;SDS011;6452;41.572;23.732;2023-04-24T06:43:02;3.80;;;3.50;;
12776;SDS011;6452;41.572;23.732;2023-04-24T06:45:29;3.53;;;3.33;;
12776;SDS011;6452;41.572;23.732;2023-04-24T06:47:55;4.30;;;3.40;;
12776;SDS011;6452;41.572;23.732;2023-04-24T06:50:21;3.85;;;3.55;;
12776;SDS011;6452;41.572;23.732;2023-04-24T06:52:47;7.72;;;3.40;;
12776;SDS011;6452;41.572;23.732;2023-04-24T06:55:13;3.80;;;3.25;;
12776;SDS011;6452;41.572;23.732;2023-04-24T06:57:42;4.30;;;3.90;;
12776;SDS011;6452;41.572;23.732;2023-04-24T07:00:08;4.65;;;3.90;;
12776;SDS011;6452;41.572;23.732;2023-04-24T07:02:35;4.18;;;3.78;;
12776;SDS011;6452;41.572;23.732;2023-04-24T07:05:01;4.13;;;3.83;;
12776;SDS011;6452;41.572;23.732;2023-04-24T07:07:27;3.47;;;3.28;;
12776;SDS011;6452;41.572;23.732;2023-04-24T07:09:53;3.35;;;3.15;;
12776;SDS011;6452;41.572;23.732;2023-04-24T07:12:19;3.47;;;3.17;;
12776;SDS011;6452;41.572;23.732;2023-04-24T07:14:47;4.40;;;3.53;;
12776;SDS011;6452;41.572;23.732;2023-04-24T07:17:13;3.90;;;3.60;;
12776;SDS011;6452;41.572;23.732;2023-04-24T07:19:38;3.85;;;3.55;;
12776;SDS011;6452;41.572;23.732;2023-04-24T07:22:04;4.15;;;3.85;;
12776;SDS011;6452;41.572;23.732;2023-04-24T07:24:31;3.05;;;2.85;;
12776;SDS011;6452;41.572;23.732;2023-04-24T07:26:58;2.80;;;2.70;;
12776;SDS011;6452;41.572;23.732;2023-04-24T07:29:24;3.70;;;3.40;;
12776;SDS011;6452;41.572;23.732;2023-04-24T07:31:50;3.35;;;3.15;;
12776;SDS011;6452;41.572;23.732;2023-04-24T07:34:17;2.72;;;2.63;;
12776;SDS011;6452;41.572;23.732;2023-04-24T07:36:43;3.13;;;2.92;;
12776;SDS011;6452;41.572;23.732;2023-04-24T07:39:09;3.83;;;2.55;;
12776;SDS011;6452;41.572;23.732;2023-04-24T07:41:35;2.90;;;2.70;;
12776;SDS011;6452;41.572;23.732;2023-04-24T07:44:01;4.95;;;3.28;;
12776;SDS011;6452;41.572;23.732;2023-04-24T07:46:27;2.80;;;2.60;;
12776;SDS011;6452;41.572;23.732;2023-04-24T07:48:55;3.00;;;2.80;;
12776;SDS011;6452;41.572;23.732;2023-04-24T07:51:21;2.78;;;2.65;;
12776;SDS011;6452;41.572;23.732;2023-04-24T07:53:47;2.72;;;2.53;;
12776;SDS011;6452;41.572;23.732;2023-04-24T07:56:13;3.10;;;2.90;;
12776;SDS011;6452;41.572;23.732;2023-04-24T07:58:39;3.08;;;2.60;;
12776;SDS011;6452;41.572;23.732;2023-04-24T08:01:06;3.17;;;2.97;;
12776;SDS011;6452;41.572;23.732;2023-04-24T08:03:31;2.65;;;2.45;;
12776;SDS011;6452;41.572;23.732;2023-04-24T08:05:58;2.72;;;2.53;;
12776;SDS011;6452;41.572;23.732;2023-04-24T08:08:24;2.30;;;2.20;;
12776;SDS011;6452;41.572;23.732;2023-04-24T08:10:50;2.53;;;2.42;;
12776;SDS011;6452;41.572;23.732;2023-04-24T08:13:16;4.75;;;2.97;;
12776;SDS011;6452;41.572;23.732;2023-04-24T08:15:42;2.22;;;2.13;;
12776;SDS011;6452;41.572;23.732;2023-04-24T08:18:08;2.78;;;2.67;;
12776;SDS011;6452;41.572;23.732;2023-04-24T08:20:37;2.72;;;2.53;;
12776;SDS011;6452;41.572;23.732;2023-04-24T08:23:03;2.67;;;2.50;;
12776;SDS011;6452;41.572;23.732;2023-04-24T08:25:29;3.20;;;2.97;;
12776;SDS011;6452;41.572;23.732;2023-04-24T08:27:55;2.95;;;2.75;;
12776;SDS011;6452;41.572;23.732;2023-04-24T08:30:21;2.45;;;2.35;;
12776;SDS011;6452;41.572;23.732;2023-04-24T08:32:47;2.50;;;2.40;;
12776;SDS011;6452;41.572;23.732;2023-04-24T08:35:13;2.47;;;2.30;;
12776;SDS011;6452;41.572;23.732;2023-04-24T08:37:39;2.60;;;2.30;;
12776;SDS011;6452;41.572;23.732;2023-04-24T08:40:09;2.60;;;2.50;;
12776;SDS011;6452;41.572;23.732;2023-04-24T08:42:37;2.42;;;2.33;;
12776;SDS011;6452;41.572;23.732;2023-04-24T08:45:03;2.60;;;2.50;;
12776;SDS011;6452;41.572;23.732;2023-04-24T08:47:31;2.30;;;2.20;;
12776;SDS011;6452;41.572;23.732;2023-04-24T08:49:58;2.58;;;2.45;;
12776;SDS011;6452;41.572;23.732;2023-04-24T08:52:28;2.42;;;2.33;;
12776;SDS011;6452;41.572;23.732;2023-04-24T08:54:54;2.13;;;2.03;;
12776;SDS011;6452;41.572;23.732;2023-04-24T08:57:20;2.47;;;2.38;;
12776;SDS011;6452;41.572;23.732;2023-04-24T08:59:46;2.40;;;2.30;;
12776;SDS011;6452;41.572;23.732;2023-04-24T09:02:12;2.67;;;2.53;;
12776;SDS011;6452;41.572;23.732;2023-04-24T09:04:39;2.25;;;2.15;;
12776;SDS011;6452;41.572;23.732;2023-04-24T09:07:05;2.47;;;2.28;;
12776;SDS011;6452;41.572;23.732;2023-04-24T09:09:32;2.10;;;2.10;;
12776;SDS011;6452;41.572;23.732;2023-04-24T09:11:58;2.80;;;2.60;;
12776;SDS011;6452;41.572;23.732;2023-04-24T09:14:24;2.65;;;2.50;;
12776;SDS011;6452;41.572;23.732;2023-04-24T09:16:50;2.90;;;2.53;;
12776;SDS011;6452;41.572;23.732;2023-04-24T09:19:16;2.55;;;2.42;;
12776;SDS011;6452;41.572;23.732;2023-04-24T09:21:42;2.75;;;2.55;;
12776;SDS011;6452;41.572;23.732;2023-04-24T09:24:17;2.45;;;2.35;;
12776;SDS011;6452;41.572;23.732;2023-04-24T09:26:45;2.42;;;2.33;;
12776;SDS011;6452;41.572;23.732;2023-04-24T09:29:15;2.90;;;2.70;;
12776;SDS011;6452;41.572;23.732;2023-04-24T09:31:42;2.70;;;2.30;;
12776;SDS011;6452;41.572;23.732;2023-04-24T09:34:08;3.05;;;2.53;;
12776;SDS011;6452;41.572;23.732;2023-04-24T09:39:04;2.40;;;2.30;;
12776;SDS011;6452;41.572;23.732;2023-04-24T09:41:31;2.42;;;2.33;;
12776;SDS011;6452;41.572;23.732;2023-04-24T09:44:10;2.42;;;2.33;;
12776;SDS011;6452;41.572;23.732;2023-04-24T09:46:36;2.42;;;2.33;;
12776;SDS011;6452;41.572;23.732;2023-04-24T09:49:09;2.65;;;2.45;;
12776;SDS011;6452;41.572;23.732;2023-04-24T09:51:36;2.80;;;2.70;;
12776;SDS011;6452;41.572;23.732;2023-04-24T09:54:04;2.50;;;2.40;;
12776;SDS011;6452;41.572;23.732;2023-04-24T09:56:33;2.47;;;2.38;;
12776;SDS011;6452;41.572;23.732;2023-04-24T09:59:06;2.95;;;2.75;;
12776;SDS011;6452;41.572;23.732;2023-04-24T10:01:32;2.47;;;2.38;;
12776;SDS011;6452;41.572;23.732;2023-04-24T10:03:58;2.78;;;2.58;;
12776;SDS011;6452;41.572;23.732;2023-04-24T10:06:32;2.55;;;2.45;;
12776;SDS011;6452;41.572;23.732;2023-04-24T10:11:47;2.25;;;2.10;;
12776;SDS011;6452;41.572;23.732;2023-04-24T10:14:14;2.20;;;2.10;;
12776;SDS011;6452;41.572;23.732;2023-04-24T10:16:41;2.42;;;2.33;;
12776;SDS011;6452;41.572;23.732;2023-04-24T10:19:07;2.35;;;2.25;;
12776;SDS011;6452;41.572;23.732;2023-04-24T10:21:34;4.97;;;2.20;;
12776;SDS011;6452;41.572;23.732;2023-04-24T10:24:02;2.42;;;2.33;;
12776;SDS011;6452;41.572;23.732;2023-04-24T10:26:32;2.10;;;2.00;;
12776;SDS011;6452;41.572;23.732;2023-04-24T10:28:59;2.30;;;2.10;;
12776;SDS011;6452;41.572;23.732;2023-04-24T10:31:26;2.30;;;2.10;;
12776;SDS011;6452;41.572;23.732;2023-04-24T10:33:53;2.15;;;2.10;;
12776;SDS011;6452;41.572;23.732;2023-04-24T10:36:19;2.00;;;2.00;;
12776;SDS011;6452;41.572;23.732;2023-04-24T10:38:48;2.22;;;2.13;;
12776;SDS011;6452;41.572;23.732;2023-04-24T10:41:16;2.13;;;2.03;;
12776;SDS011;6452;41.572;23.732;2023-04-24T10:43:48;2.20;;;2.10;;
12776;SDS011;6452;41.572;23.732;2023-04-24T10:46:29;2.65;;;2.45;;
12776;SDS011;6452;41.572;23.732;2023-04-24T10:48:55;2.28;;;2.17;;
12776;SDS011;6452;41.572;23.732;2023-04-24T10:51:22;2.30;;;2.20;;
12776;SDS011;6452;41.572;23.732;2023-04-24T10:53:52;1.88;;;1.83;;
12776;SDS011;6452;41.572;23.732;2023-04-24T10:56:18;2.00;;;2.00;;
12776;SDS011;6452;41.572;23.732;2023-04-24T10:58:44;2.05;;;1.98;;
12776;SDS011;6452;41.572;23.732;2023-04-24T11:01:28;1.83;;;1.73;;
12776;SDS011;6452;41.572;23.732;2023-04-24T11:03:56;2.05;;;1.80;;
12776;SDS011;6452;41.572;23.732;2023-04-24T11:06:29;1.80;;;1.80;;
12776;SDS011;6452;41.572;23.732;2023-04-24T11:11:29;2.08;;;1.98;;
12776;SDS011;6452;41.572;23.732;2023-04-24T11:21:55;2.05;;;1.75;;
12776;SDS011;6452;41.572;23.732;2023-04-24T11:29:22;2.15;;;1.75;;
12776;SDS011;6452;41.572;23.732;2023-04-24T11:31:48;1.77;;;1.67;;
12776;SDS011;6452;41.572;23.732;2023-04-24T11:34:17;1.52;;;1.45;;
12776;SDS011;6452;41.572;23.732;2023-04-24T11:36:43;1.60;;;1.60;;
12776;SDS011;6452;41.572;23.732;2023-04-24T11:39:10;2.17;;;2.08;;
12776;SDS011;6452;41.572;23.732;2023-04-24T11:41:37;1.63;;;1.60;;
12776;SDS011;6452;41.572;23.732;2023-04-24T11:44:03;1.77;;;1.70;;
12776;SDS011;6452;41.572;23.732;2023-04-24T11:46:31;1.75;;;1.67;;
12776;SDS011;6452;41.572;23.732;2023-04-24T11:48:57;1.75;;;1.75;;
12776;SDS011;6452;41.572;23.732;2023-04-24T11:51:24;1.83;;;1.73;;
12776;SDS011;6452;41.572;23.732;2023-04-24T11:53:51;1.70;;;1.70;;
12776;SDS011;6452;41.572;23.732;2023-04-24T11:56:17;1.83;;;1.83;;
12776;SDS011;6452;41.572;23.732;2023-04-24T11:58:44;1.67;;;1.67;;
12776;SDS011;6452;41.572;23.732;2023-04-24T12:01:10;1.98;;;1.88;;
12776;SDS011;6452;41.572;23.732;2023-04-24T12:03:36;2.00;;;1.90;;
12776;SDS011;6452;41.572;23.732;2023-04-24T12:06:05;1.75;;;1.65;;
12776;SDS011;6452;41.572;23.732;2023-04-24T12:08:33;2.00;;;1.90;;
12776;SDS011;6452;41.572;23.732;2023-04-24T12:11:00;1.98;;;1.88;;
12776;SDS011;6452;41.572;23.732;2023-04-24T12:13:26;1.50;;;1.50;;
12776;SDS011;6452;41.572;23.732;2023-04-24T12:15:52;1.80;;;1.70;;
12776;SDS011;6452;41.572;23.732;2023-04-24T12:18:23;1.42;;;1.42;;
12776;SDS011;6452;41.572;23.732;2023-04-24T12:20:50;1.90;;;1.80;;
12776;SDS011;6452;41.572;23.732;2023-04-24T12:23:15;1.60;;;1.60;;
12776;SDS011;6452;41.572;23.732;2023-04-24T12:25:43;1.75;;;1.65;;
12776;SDS011;6452;41.572;23.732;2023-04-24T12:28:10;1.70;;;1.60;;
12776;SDS011;6452;41.572;23.732;2023-04-24T12:30:49;1.95;;;1.50;;
12776;SDS011;6452;41.572;23.732;2023-04-24T12:33:19;1.58;;;1.55;;
12776;SDS011;6452;41.572;23.732;2023-04-24T12:35:45;1.80;;;1.70;;
12776;SDS011;6452;41.572;23.732;2023-04-24T12:38:12;1.73;;;1.73;;
12776;SDS011;6452;41.572;23.732;2023-04-24T12:40:39;1.98;;;1.88;;
12776;SDS011;6452;41.572;23.732;2023-04-24T12:43:14;2.58;;;2.38;;
12776;SDS011;6452;41.572;23.732;2023-04-24T12:45:40;4.15;;;2.83;;
12776;SDS011;6452;41.572;23.732;2023-04-24T12:48:06;3.03;;;2.10;;
12776;SDS011;6452;41.572;23.732;2023-04-24T12:50:32;1.83;;;1.73;;
12776;SDS011;6452;41.572;23.732;2023-04-24T12:52:59;2.50;;;1.65;;
12776;SDS011;6452;41.572;23.732;2023-04-24T12:55:25;1.52;;;1.52;;
12776;SDS011;6452;41.572;23.732;2023-04-24T12:57:51;1.70;;;1.65;;
12776;SDS011;6452;41.572;23.732;2023-04-24T13:00:19;1.70;;;1.70;;
12776;SDS011;6452;41.572;23.732;2023-04-24T13:02:45;1.48;;;1.13;;
12776;SDS011;6452;41.572;23.732;2023-04-24T13:05:11;1.70;;;1.60;;
12776;SDS011;6452;41.572;23.732;2023-04-24T13:07:39;1.40;;;1.40;;
12776;SDS011;6452;41.572;23.732;2023-04-24T13:10:05;1.45;;;1.45;;
12776;SDS011;6452;41.572;23.732;2023-04-24T13:12:31;2.10;;;2.00;;
12776;SDS011;6452;41.572;23.732;2023-04-24T13:14:58;3.22;;;2.30;;
12776;SDS011;6452;41.572;23.732;2023-04-24T13:17:24;2.08;;;2.00;;
12776;SDS011;6452;41.572;23.732;2023-04-24T13:19:51;1.50;;;1.50;;
12776;SDS011;6452;41.572;23.732;2023-04-24T13:22:17;2.35;;;2.22;;
12776;SDS011;6452;41.572;23.732;2023-04-24T13:24:44;2.10;;;2.00;;
12776;SDS011;6452;41.572;23.732;2023-04-24T13:27:10;1.85;;;1.83;;
12776;SDS011;6452;41.572;23.732;2023-04-24T13:29:36;2.10;;;2.00;;
12776;SDS011;6452;41.572;23.732;2023-04-24T13:32:03;1.60;;;1.50;;
12776;SDS011;6452;41.572;23.732;2023-04-24T13:34:29;1.77;;;1.70;;
12776;SDS011;6452;41.572;23.732;2023-04-24T13:36:56;2.00;;;1.90;;
12776;SDS011;6452;41.572;23.732;2023-04-24T13:39:22;1.83;;;1.75;;
12776;SDS011;6452;41.572;23.732;2023-04-24T13:41:48;1.85;;;1.85;;
12776;SDS011;6452;41.572;23.732;2023-04-24T13:44:15;2.22;;;2.13;;
12776;SDS011;6452;41.572;23.732;2023-04-24T13:46:45;1.85;;;1.85;;
12776;SDS011;6452;41.572;23.732;2023-04-24T13:49:11;1.85;;;1.75;;
12776;SDS011;6452;41.572;23.732;2023-04-24T13:51:37;3.33;;;2.00;;
12776;SDS011;6452;41.572;23.732;2023-04-24T13:54:03;2.58;;;2.25;;
12776;SDS011;6452;41.572;23.732;2023-04-24T13:56:30;1.85;;;1.83;;
12776;SDS011;6452;41.572;23.732;2023-04-24T13:58:56;2.10;;;2.00;;
12776;SDS011;6452;41.572;23.732;2023-04-24T14:01:22;2.40;;;2.20;;
12776;SDS011;6452;41.572;23.732;2023-04-24T14:03:52;3.55;;;2.38;;
12776;SDS011;6452;41.572;23.732;2023-04-24T14:06:22;2.55;;;2.13;;
12776;SDS011;6452;41.572;23.732;2023-04-24T14:08:48;2.00;;;1.90;;
12776;SDS011;6452;41.572;23.732;2023-04-24T14:11:14;2.00;;;2.00;;
12776;SDS011;6452;41.572;23.732;2023-04-24T14:13:41;2.00;;;1.90;;
12776;SDS011;6452;41.572;23.732;2023-04-24T14:16:08;1.90;;;1.90;;
12776;SDS011;6452;41.572;23.732;2023-04-24T14:18:34;2.00;;;2.00;;
12776;SDS011;6452;41.572;23.732;2023-04-24T14:21:02;2.42;;;2.33;;
12776;SDS011;6452;41.572;23.732;2023-04-24T14:23:27;2.05;;;1.95;;
12776;SDS011;6452;41.572;23.732;2023-04-24T14:25:53;2.20;;;2.10;;
12776;SDS011;6452;41.572;23.732;2023-04-24T14:28:20;2.17;;;2.08;;
12776;SDS011;6452;41.572;23.732;2023-04-24T14:30:46;2.67;;;2.28;;
12776;SDS011;6452;41.572;23.732;2023-04-24T14:33:13;1.90;;;1.80;;
12776;SDS011;6452;41.572;23.732;2023-04-24T14:35:39;1.75;;;1.75;;
12776;SDS011;6452;41.572;23.732;2023-04-24T14:38:07;2.30;;;2.20;;
12776;SDS011;6452;41.572;23.732;2023-04-24T14:40:33;2.05;;;1.95;;
12776;SDS011;6452;41.572;23.732;2023-04-24T14:42:59;2.20;;;1.90;;
12776;SDS011;6452;41.572;23.732;2023-04-24T14:45:25;2.22;;;1.75;;
12776;SDS011;6452;41.572;23.732;2023-04-24T14:47:52;2.03;;;1.98;;
12776;SDS011;6452;41.572;23.732;2023-04-24T14:50:18;2.83;;;2.63;;
12776;SDS011;6452;41.572;23.732;2023-04-24T14:52:44;1.90;;;1.80;;
12776;SDS011;6452;41.572;23.732;2023-04-24T14:55:10;1.88;;;1.77;;
12776;SDS011;6452;41.572;23.732;2023-04-24T14:57:37;1.90;;;1.90;;
12776;SDS011;6452;41.572;23.732;2023-04-24T15:00:03;2.25;;;2.15;;
12776;SDS011;6452;41.572;23.732;2023-04-24T15:02:32;2.17;;;2.08;;
12776;SDS011;6452;41.572;23.732;2023-04-24T15:04:58;2.30;;;2.20;;